createdAt,value
2022-07-26T00:00:24.909Z,20.99
2022-07-26T00:02:56.294Z,20.98
2022-07-26T00:05:27.176Z,20.96
2022-07-26T00:08:11.033Z,20.92
2022-07-26T00:10:43.236Z,20.89
2022-07-26T00:13:17.697Z,20.86
2022-07-26T00:15:49.045Z,20.78
2022-07-26T00:18:20.894Z,20.77
2022-07-26T00:20:51.497Z,20.76
2022-07-26T00:23:22.860Z,20.73
2022-07-26T00:25:53.219Z,20.70
2022-07-26T00:28:26.308Z,20.68
2022-07-26T00:30:57.396Z,20.62
2022-07-26T00:33:27.931Z,20.60
2022-07-26T00:35:58.242Z,20.59
2022-07-26T00:38:28.575Z,20.57
2022-07-26T00:40:59.206Z,20.54
2022-07-26T00:43:32.346Z,20.53
2022-07-26T00:46:03.980Z,20.53
2022-07-26T00:48:34.259Z,20.50
2022-07-26T00:51:04.718Z,20.47
2022-07-26T00:53:34.942Z,20.47
2022-07-26T00:56:05.481Z,20.51
2022-07-26T00:58:38.492Z,20.57
2022-07-26T01:01:09.529Z,20.47
2022-07-26T01:03:40.329Z,20.47
2022-07-26T01:06:10.736Z,20.43
2022-07-26T01:08:41.363Z,20.39
2022-07-26T01:11:12.005Z,20.38
2022-07-26T01:13:53.506Z,20.33
2022-07-26T01:16:24.215Z,20.34
2022-07-26T01:18:55.156Z,20.35
2022-07-26T01:21:25.796Z,20.33
2022-07-26T01:23:59.162Z,20.29
2022-07-26T01:26:29.228Z,20.25
2022-07-26T01:28:59.579Z,20.21
2022-07-26T01:31:30.460Z,20.23
2022-07-26T01:34:01.718Z,20.23
2022-07-26T01:36:32.454Z,20.21
2022-07-26T01:39:05.885Z,20.19
2022-07-26T01:41:37.951Z,20.09
2022-07-26T01:44:10.769Z,20.13
2022-07-26T01:46:41.582Z,20.08
2022-07-26T01:49:12.080Z,19.97
2022-07-26T01:51:42.859Z,20.00
2022-07-26T01:54:22.444Z,20.05
2022-07-26T01:56:55.067Z,20.03
2022-07-26T01:59:26.147Z,20.04
2022-07-26T02:01:56.917Z,20.01
2022-07-26T02:04:39.896Z,20.00
2022-07-26T02:07:13.021Z,19.95
2022-07-26T02:09:46.218Z,19.87
2022-07-26T02:12:18.023Z,19.91
2022-07-26T02:14:48.800Z,19.90
2022-07-26T02:17:19.576Z,19.89
2022-07-26T02:19:49.779Z,19.87
2022-07-26T02:22:20.112Z,19.84
2022-07-26T02:24:54.263Z,19.84
2022-07-26T02:27:24.801Z,19.81
2022-07-26T02:29:55.602Z,19.75
2022-07-26T02:32:26.651Z,19.76
2022-07-26T02:34:57.251Z,19.72
2022-07-26T02:37:27.574Z,19.72
2022-07-26T02:40:01.070Z,19.70
2022-07-26T02:42:31.806Z,19.67
2022-07-26T02:45:02.444Z,19.64
2022-07-26T02:47:33.408Z,19.63
2022-07-26T02:50:03.928Z,19.60
2022-07-26T02:52:34.374Z,19.46
2022-07-26T02:55:08.726Z,19.46
2022-07-26T02:57:45.557Z,19.46
2022-07-26T03:00:19.152Z,19.53
2022-07-26T03:02:49.924Z,19.55
2022-07-26T03:05:21.189Z,19.54
2022-07-26T03:07:51.789Z,19.56
2022-07-26T03:10:25.186Z,19.54
2022-07-26T03:12:55.706Z,19.48
2022-07-26T03:15:30.763Z,19.42
2022-07-26T03:18:02.066Z,19.41
2022-07-26T03:20:33.152Z,19.40
2022-07-26T03:23:03.839Z,19.38
2022-07-26T03:25:37.783Z,19.35
2022-07-26T03:28:08.874Z,19.33
2022-07-26T03:30:40.109Z,19.33
2022-07-26T03:33:11.452Z,19.35
2022-07-26T03:35:42.503Z,19.39
2022-07-26T03:38:15.338Z,19.40
2022-07-26T03:40:48.713Z,19.31
2022-07-26T03:43:23.007Z,19.37
2022-07-26T03:45:55.872Z,19.40
2022-07-26T03:48:26.663Z,19.48
2022-07-26T03:50:57.044Z,19.53
2022-07-26T03:53:27.993Z,19.59
2022-07-26T03:56:25.871Z,19.61
2022-07-26T03:58:56.312Z,19.65
2022-07-26T04:01:26.967Z,19.69
2022-07-26T04:03:57.948Z,19.79
2022-07-26T04:06:30.872Z,19.86
2022-07-26T04:09:01.718Z,19.97
2022-07-26T04:11:38.748Z,20.04
2022-07-26T04:14:10.960Z,20.13
2022-07-26T04:16:43.784Z,20.39
2022-07-26T04:19:14.902Z,20.71
2022-07-26T04:21:45.605Z,20.68
2022-07-26T04:24:16.209Z,20.68
2022-07-26T04:26:49.767Z,20.71
2022-07-26T04:29:20.374Z,20.75
2022-07-26T04:31:50.867Z,20.91
2022-07-26T04:34:21.833Z,21.02
2022-07-26T04:36:52.651Z,20.99
2022-07-26T04:39:24.851Z,21.12
2022-07-26T04:41:57.579Z,21.31
2022-07-26T04:44:27.833Z,21.49
2022-07-26T04:46:58.012Z,21.58
2022-07-26T04:49:28.612Z,21.82
2022-07-26T04:51:59.873Z,21.87
2022-07-26T04:54:30.995Z,21.99
2022-07-26T04:57:04.887Z,22.17
2022-07-26T04:59:35.382Z,22.29
2022-07-26T05:02:05.910Z,22.39
2022-07-26T05:04:36.450Z,22.47
2022-07-26T05:07:08.272Z,22.34
2022-07-26T05:09:39.249Z,22.56
2022-07-26T05:12:13.890Z,22.28
2022-07-26T05:14:44.627Z,22.11
2022-07-26T05:17:17.935Z,22.25
2022-07-26T05:19:49.349Z,22.45
2022-07-26T05:22:20.275Z,22.66
2022-07-26T05:24:50.820Z,22.85
2022-07-26T05:29:53.787Z,22.96
2022-07-26T05:32:24.806Z,22.98
2022-07-26T05:34:55.296Z,23.03
2022-07-26T05:37:26.094Z,23.03
2022-07-26T05:39:57.098Z,22.98
2022-07-26T05:42:30.469Z,23.00
2022-07-26T05:45:00.639Z,23.19
2022-07-26T05:47:31.501Z,23.35
2022-07-26T05:50:01.862Z,23.69
2022-07-26T05:52:32.084Z,24.20
2022-07-26T05:55:02.686Z,24.52
2022-07-26T05:57:35.907Z,24.94
2022-07-26T06:00:07.231Z,25.23
2022-07-26T06:02:42.648Z,25.54
2022-07-26T06:05:14.221Z,25.79
2022-07-26T06:07:44.751Z,26.05
2022-07-26T06:10:15.405Z,25.87
2022-07-26T06:12:49.037Z,26.12
2022-07-26T06:15:20.501Z,26.37
2022-07-26T06:17:51.043Z,26.36
2022-07-26T06:20:21.522Z,26.73
2022-07-26T06:22:52.017Z,26.96
2022-07-26T06:25:22.570Z,26.82
2022-07-26T06:27:55.677Z,26.98
2022-07-26T06:30:28.401Z,27.18
2022-07-26T06:32:59.797Z,27.40
2022-07-26T06:35:32.189Z,27.14
2022-07-26T06:38:03.194Z,27.23
2022-07-26T06:40:33.805Z,26.99
2022-07-26T06:43:06.892Z,27.16
2022-07-26T06:45:37.097Z,27.05
2022-07-26T06:48:07.710Z,27.11
2022-07-26T06:50:37.838Z,27.49
2022-07-26T06:53:07.974Z,27.32
2022-07-26T06:55:38.180Z,27.48
2022-07-26T06:58:11.167Z,27.65
2022-07-26T07:00:41.811Z,27.87
2022-07-26T07:03:12.019Z,28.00
2022-07-26T07:05:45.328Z,28.31
2022-07-26T07:08:21.517Z,28.01
2022-07-26T07:10:54.212Z,27.86
2022-07-26T07:13:26.999Z,28.23
2022-07-26T07:15:57.365Z,27.85
2022-07-26T07:18:27.759Z,28.37
2022-07-26T07:20:57.909Z,27.87
2022-07-26T07:23:28.113Z,28.15
2022-07-26T07:25:58.718Z,28.21
2022-07-26T07:28:34.559Z,28.32
2022-07-26T07:31:05.628Z,28.28
2022-07-26T07:33:36.455Z,28.59
2022-07-26T07:36:14.120Z,28.52
2022-07-26T07:38:44.355Z,28.81
2022-07-26T07:41:15.365Z,28.64
2022-07-26T07:43:48.155Z,28.53
2022-07-26T07:46:19.555Z,28.36
2022-07-26T07:48:49.846Z,28.26
2022-07-26T07:51:22.869Z,29.09
2022-07-26T07:53:56.656Z,28.93
2022-07-26T07:56:28.353Z,29.27
2022-07-26T07:59:01.402Z,29.22
2022-07-26T08:01:39.883Z,29.33
2022-07-26T08:04:11.369Z,28.76
2022-07-26T08:06:41.724Z,28.94
2022-07-26T08:09:18.005Z,29.43
2022-07-26T08:11:51.117Z,29.38
2022-07-26T08:14:24.440Z,28.84
2022-07-26T08:16:54.662Z,29.33
2022-07-26T08:19:26.151Z,29.69
2022-07-26T08:22:01.883Z,29.55
2022-07-26T08:24:32.184Z,29.70
2022-07-26T08:27:04.653Z,30.00
2022-07-26T08:29:37.734Z,29.49
2022-07-26T08:32:08.850Z,29.13
2022-07-26T08:34:39.228Z,29.06
2022-07-26T08:37:17.705Z,29.34
2022-07-26T08:39:48.396Z,29.82
2022-07-26T08:42:22.371Z,30.15
2022-07-26T08:44:55.559Z,30.14
2022-07-26T08:47:35.405Z,29.38
2022-07-26T08:50:11.808Z,29.18
2022-07-26T08:52:43.656Z,29.94
2022-07-26T08:55:14.086Z,30.16
2022-07-26T08:57:44.765Z,30.07
2022-07-26T09:00:25.114Z,29.55
2022-07-26T09:02:56.721Z,30.09
2022-07-26T09:05:31.194Z,30.03
2022-07-26T09:08:02.627Z,30.10
2022-07-26T09:10:39.374Z,30.38
2022-07-26T09:13:09.708Z,29.68
2022-07-26T09:15:44.115Z,29.80
2022-07-26T09:18:29.595Z,29.41
2022-07-26T09:21:02.253Z,29.23
2022-07-26T09:23:42.879Z,29.49
2022-07-26T09:26:13.058Z,29.62
2022-07-26T09:28:45.049Z,29.49
2022-07-26T09:31:26.220Z,29.50
2022-07-26T09:33:56.735Z,28.83
2022-07-26T09:36:26.919Z,28.69
2022-07-26T09:38:59.259Z,29.35
2022-07-26T09:41:31.500Z,29.15
2022-07-26T09:44:03.617Z,29.47
2022-07-26T09:46:37.996Z,28.66
2022-07-26T09:49:20.463Z,28.84
2022-07-26T09:51:52.195Z,29.18
2022-07-26T09:54:33.325Z,29.41
2022-07-26T09:57:04.411Z,29.42
2022-07-26T09:59:34.758Z,29.05
2022-07-26T10:02:08.858Z,28.76
2022-07-26T10:04:41.430Z,28.58
2022-07-26T10:07:12.519Z,28.38
2022-07-26T10:10:00.740Z,28.35
2022-07-26T10:12:34.330Z,28.37
2022-07-26T10:15:04.743Z,27.85
2022-07-26T10:17:46.837Z,27.63
2022-07-26T10:20:45.616Z,27.50
2022-07-26T10:23:37.668Z,27.34
2022-07-26T10:26:10.548Z,27.59
2022-07-26T10:28:43.419Z,27.51
2022-07-26T10:31:34.920Z,27.39
2022-07-26T10:34:08.132Z,26.97
2022-07-26T10:36:40.490Z,26.58
2022-07-26T10:39:14.170Z,26.93
2022-07-26T10:41:48.336Z,26.24
2022-07-26T10:44:29.968Z,25.66
2022-07-26T10:47:18.864Z,25.60
2022-07-26T10:50:03.307Z,25.49
2022-07-26T10:52:35.040Z,25.36
2022-07-26T10:55:13.797Z,25.18
2022-07-26T10:57:45.546Z,25.17
2022-07-26T11:00:19.246Z,24.75
2022-07-26T11:02:53.037Z,24.77
2022-07-26T11:05:30.132Z,24.95
2022-07-26T11:08:09.033Z,24.50
2022-07-26T11:10:42.605Z,23.83
2022-07-26T11:13:16.135Z,23.98
2022-07-26T11:15:54.711Z,24.41
2022-07-26T11:18:28.274Z,24.28
2022-07-26T11:21:11.983Z,24.35
2022-07-26T11:23:44.279Z,24.36
2022-07-26T11:26:18.230Z,25.09
2022-07-26T11:29:00.466Z,25.16
2022-07-26T11:31:52.049Z,25.58
2022-07-26T11:34:33.434Z,26.26
2022-07-26T11:37:07.996Z,26.44
2022-07-26T11:39:39.341Z,26.64
2022-07-26T11:42:11.854Z,26.56
2022-07-26T11:44:46.734Z,26.50
2022-07-26T11:47:20.466Z,26.48
2022-07-26T11:50:00.693Z,26.20
2022-07-26T11:52:42.760Z,25.73
2022-07-26T11:55:13.105Z,25.71
2022-07-26T11:57:43.294Z,25.64
2022-07-26T12:00:15.412Z,25.81
2022-07-26T12:02:45.766Z,26.29
2022-07-26T12:05:18.877Z,26.72
2022-07-26T12:08:03.100Z,26.95
2022-07-26T12:10:33.643Z,26.79
2022-07-26T12:13:11.867Z,26.59
2022-07-26T12:15:51.306Z,26.31
2022-07-26T12:18:29.452Z,26.67
2022-07-26T12:21:05.016Z,27.01
2022-07-26T12:23:51.380Z,27.45
2022-07-26T12:26:25.674Z,27.39
2022-07-26T12:28:56.117Z,27.49
2022-07-26T12:31:31.203Z,27.48
2022-07-26T12:34:02.028Z,27.05
2022-07-26T12:36:32.256Z,27.12
2022-07-26T12:39:05.053Z,27.03
2022-07-26T12:41:37.179Z,27.34
2022-07-26T12:44:09.382Z,27.26
2022-07-26T12:46:40.260Z,27.53
2022-07-26T12:49:10.543Z,27.06
2022-07-26T12:51:41.467Z,27.22
2022-07-26T12:54:15.091Z,27.03
2022-07-26T12:56:46.362Z,27.13
2022-07-26T12:59:19.884Z,27.08
2022-07-26T13:01:50.478Z,27.26
2022-07-26T13:04:20.919Z,27.39
2022-07-26T13:06:51.167Z,27.40
2022-07-26T13:09:24.108Z,27.43
2022-07-26T13:11:54.601Z,27.55
2022-07-26T13:14:24.903Z,28.34
2022-07-26T13:16:55.109Z,28.04
2022-07-26T13:19:25.756Z,27.60
2022-07-26T13:21:56.167Z,27.35
2022-07-26T13:24:30.025Z,27.06
2022-07-26T13:27:01.425Z,26.79
2022-07-26T13:29:33.031Z,26.71
2022-07-26T13:32:03.298Z,26.58
2022-07-26T13:34:35.264Z,26.35
2022-07-26T13:37:08.348Z,26.36
2022-07-26T13:39:41.001Z,26.03
2022-07-26T13:42:11.510Z,25.83
2022-07-26T13:44:41.648Z,25.78
2022-07-26T13:47:11.863Z,25.62
2022-07-26T13:49:42.438Z,25.52
2022-07-26T13:52:16.537Z,25.05
2022-07-26T13:54:49.646Z,24.95
2022-07-26T13:57:19.938Z,24.89
2022-07-26T13:59:50.415Z,24.94
2022-07-26T14:02:20.963Z,24.98
2022-07-26T14:04:51.450Z,24.74
2022-07-26T14:07:21.817Z,24.58
2022-07-26T14:09:54.596Z,24.23
2022-07-26T14:12:24.800Z,24.17
2022-07-26T14:14:54.898Z,24.16
2022-07-26T14:17:25.320Z,23.80
2022-07-26T14:19:55.434Z,24.01
2022-07-26T14:22:26.242Z,23.84
2022-07-26T14:24:59.130Z,23.64
2022-07-26T14:27:29.548Z,23.82
2022-07-26T14:29:59.843Z,23.80
2022-07-26T14:32:30.238Z,23.69
2022-07-26T14:35:00.440Z,23.78
2022-07-26T14:37:43.041Z,23.84
2022-07-26T14:40:20.527Z,23.92
2022-07-26T14:42:50.761Z,24.09
2022-07-26T14:45:21.550Z,24.22
2022-07-26T14:47:51.790Z,24.04
2022-07-26T14:50:23.540Z,24.01
2022-07-26T14:52:53.712Z,24.03
2022-07-26T14:55:26.771Z,24.36
2022-07-26T14:57:57.079Z,24.20
2022-07-26T15:00:33.553Z,23.99
2022-07-26T15:03:04.397Z,24.31
2022-07-26T15:05:34.530Z,24.29
2022-07-26T15:08:06.296Z,24.33
2022-07-26T15:10:39.246Z,24.05
2022-07-26T15:13:10.627Z,24.31
2022-07-26T15:15:43.429Z,24.09
2022-07-26T15:18:13.791Z,24.17
2022-07-26T15:20:44.893Z,24.22
2022-07-26T15:23:16.203Z,24.21
2022-07-26T15:25:49.248Z,24.14
2022-07-26T15:28:19.661Z,24.08
2022-07-26T15:30:53.337Z,24.14
2022-07-26T15:33:24.010Z,24.20
2022-07-26T15:35:55.627Z,24.22
2022-07-26T15:38:25.923Z,23.95
2022-07-26T15:40:58.627Z,23.97
2022-07-26T15:43:48.469Z,24.20
2022-07-26T15:46:19.870Z,24.32
2022-07-26T15:48:52.028Z,23.99
2022-07-26T15:51:25.340Z,24.00
2022-07-26T15:53:55.238Z,24.11
2022-07-26T15:56:28.049Z,24.23
2022-07-26T15:58:58.263Z,24.20
2022-07-26T16:01:28.516Z,24.20
2022-07-26T16:03:59.112Z,24.16
2022-07-26T16:06:29.328Z,24.19
2022-07-26T16:09:19.138Z,24.23
2022-07-26T16:11:52.968Z,24.10
2022-07-26T16:14:23.312Z,24.01
2022-07-26T16:16:53.837Z,24.18
2022-07-26T16:19:24.004Z,24.07
2022-07-26T16:21:54.406Z,24.06
2022-07-26T16:24:25.748Z,24.14
2022-07-26T16:26:58.741Z,24.16
2022-07-26T16:29:28.908Z,24.20
2022-07-26T16:31:59.134Z,24.19
2022-07-26T16:34:30.287Z,24.15
2022-07-26T16:37:00.682Z,24.05
2022-07-26T16:39:30.890Z,24.06
2022-07-26T16:42:07.043Z,24.14
2022-07-26T16:44:39.506Z,24.07
2022-07-26T16:47:09.968Z,24.22
2022-07-26T16:49:40.173Z,24.17
2022-07-26T16:52:10.855Z,24.22
2022-07-26T16:54:41.285Z,24.19
2022-07-26T16:57:15.178Z,24.12
2022-07-26T16:59:45.453Z,24.02
2022-07-26T17:02:15.969Z,24.20
2022-07-26T17:04:46.910Z,24.17
2022-07-26T17:07:26.135Z,24.26
2022-07-26T17:09:58.035Z,24.36
2022-07-26T17:12:32.176Z,24.44
2022-07-26T17:15:03.021Z,24.57
2022-07-26T17:17:33.903Z,24.48
2022-07-26T17:20:04.851Z,24.58
2022-07-26T17:22:35.394Z,24.64
2022-07-26T17:25:06.432Z,24.60
2022-07-26T17:27:39.882Z,24.62
2022-07-26T17:30:12.249Z,24.58
2022-07-26T17:32:43.040Z,24.53
2022-07-26T17:35:15.440Z,24.65
2022-07-26T17:37:55.825Z,24.53
2022-07-26T17:40:27.124Z,24.48
2022-07-26T17:43:00.194Z,24.46
2022-07-26T17:45:31.087Z,24.44
2022-07-26T17:48:05.917Z,24.48
2022-07-26T17:50:38.467Z,24.42
2022-07-26T17:53:09.283Z,24.26
2022-07-26T17:55:39.926Z,24.22
2022-07-26T17:58:15.967Z,24.24
2022-07-26T18:00:47.442Z,24.27
2022-07-26T18:03:18.261Z,24.13
2022-07-26T18:05:48.814Z,23.99
2022-07-26T18:08:19.838Z,23.99
2022-07-26T18:10:51.425Z,23.92
2022-07-26T18:13:24.590Z,23.79
2022-07-26T18:16:05.803Z,23.81
2022-07-26T18:18:39.043Z,23.64
2022-07-26T18:21:09.333Z,23.64
2022-07-26T18:23:54.574Z,23.65
2022-07-26T18:26:29.776Z,23.56
2022-07-26T18:29:02.890Z,23.51
2022-07-26T18:31:33.403Z,23.52
2022-07-26T18:34:06.544Z,23.42
2022-07-26T18:36:38.066Z,23.32
2022-07-26T18:39:10.477Z,23.28
2022-07-26T18:41:41.101Z,23.26
2022-07-26T18:44:14.509Z,23.23
2022-07-26T18:46:45.099Z,23.18
2022-07-26T18:49:20.079Z,23.07
2022-07-26T18:51:51.618Z,23.02
2022-07-26T18:54:23.170Z,23.00
2022-07-26T18:56:53.416Z,22.99
2022-07-26T18:59:26.430Z,22.95
2022-07-26T19:01:57.922Z,22.91
2022-07-26T19:04:28.414Z,22.78
2022-07-26T19:06:59.214Z,22.83
2022-07-26T19:09:29.731Z,22.76
2022-07-26T19:12:00.120Z,22.56
2022-07-26T19:14:33.756Z,22.56
2022-07-26T19:17:06.017Z,22.54
2022-07-26T19:19:36.576Z,22.54
2022-07-26T19:22:07.199Z,22.47
2022-07-26T19:24:44.977Z,22.38
2022-07-26T19:27:16.140Z,22.29
2022-07-26T19:29:49.288Z,22.29
2022-07-26T19:32:19.854Z,22.38
2022-07-26T19:34:50.328Z,22.32
2022-07-26T19:37:23.072Z,22.29
2022-07-26T19:39:55.951Z,22.37
2022-07-26T19:42:26.307Z,22.23
2022-07-26T19:44:59.970Z,22.18
2022-07-26T19:47:30.792Z,22.13
2022-07-26T19:50:01.380Z,22.15
2022-07-26T19:52:32.598Z,22.04
2022-07-26T19:55:02.851Z,22.06
2022-07-26T19:57:33.163Z,21.96
2022-07-26T20:00:08.337Z,21.93
2022-07-26T20:02:45.515Z,21.91
2022-07-26T20:05:16.113Z,21.95
2022-07-26T20:07:48.055Z,21.82
2022-07-26T20:10:18.516Z,21.80
2022-07-26T20:12:48.681Z,21.88
2022-07-26T20:15:22.830Z,21.79
2022-07-26T20:17:53.083Z,21.80
2022-07-26T20:20:23.503Z,21.68
2022-07-26T20:22:54.017Z,21.65
2022-07-26T20:25:25.502Z,21.68
2022-07-26T20:27:56.241Z,21.68
2022-07-26T20:30:29.899Z,21.63
2022-07-26T20:33:00.327Z,21.72
2022-07-26T20:35:31.637Z,21.53
2022-07-26T20:38:02.030Z,21.50
2022-07-26T20:40:33.929Z,21.51
2022-07-26T20:43:04.947Z,21.39
2022-07-26T20:45:39.487Z,21.32
2022-07-26T20:48:11.254Z,21.40
2022-07-26T20:50:41.924Z,21.42
2022-07-26T20:53:12.632Z,21.34
2022-07-26T20:55:43.196Z,21.28
2022-07-26T20:58:13.956Z,21.26
2022-07-26T21:00:48.055Z,21.31
2022-07-26T21:03:19.408Z,21.27
2022-07-26T21:05:50.455Z,21.17
2022-07-26T21:08:21.173Z,21.14
2022-07-26T21:10:51.745Z,21.05
2022-07-26T21:13:22.153Z,21.06
2022-07-26T21:16:00.206Z,20.91
2022-07-26T21:18:31.703Z,20.93
2022-07-26T21:21:02.423Z,20.99
2022-07-26T21:23:33.070Z,20.90
2022-07-26T21:26:03.271Z,20.88
2022-07-26T21:28:33.595Z,20.77
2022-07-26T21:31:07.521Z,20.82
2022-07-26T21:33:38.304Z,20.73
2022-07-26T21:36:08.750Z,20.64
2022-07-26T21:38:39.075Z,20.70
2022-07-26T21:41:09.550Z,20.55
2022-07-26T21:43:44.402Z,20.51
2022-07-26T21:46:17.633Z,20.53
2022-07-26T21:48:47.916Z,20.44
2022-07-26T21:51:18.220Z,20.37
2022-07-26T21:53:48.737Z,20.36
2022-07-26T21:56:20.367Z,20.41
2022-07-26T21:58:51.127Z,20.31
2022-07-26T22:01:23.970Z,20.29
2022-07-26T22:03:54.151Z,20.22
2022-07-26T22:06:24.395Z,20.24
2022-07-26T22:08:54.739Z,20.23
2022-07-26T22:11:25.032Z,20.03
2022-07-26T22:13:55.920Z,20.04
2022-07-26T22:16:29.161Z,20.16
2022-07-26T22:18:59.716Z,20.08
2022-07-26T22:21:32.365Z,20.08
2022-07-26T22:24:02.934Z,20.07
2022-07-26T22:26:34.127Z,19.91
2022-07-26T22:29:04.279Z,20.06
2022-07-26T22:31:37.523Z,19.93
2022-07-26T22:34:07.709Z,19.88
2022-07-26T22:36:43.532Z,19.91
2022-07-26T22:39:15.912Z,19.89
2022-07-26T22:42:13.709Z,19.83
2022-07-26T22:44:37.113Z,19.91
2022-07-26T22:47:10.067Z,19.82
2022-07-26T22:49:40.266Z,19.81
2022-07-26T22:52:10.478Z,19.74
2022-07-26T22:54:40.867Z,19.69
2022-07-26T22:57:11.096Z,19.73
2022-07-26T22:59:41.421Z,19.79
2022-07-26T23:02:14.419Z,19.69
2022-07-26T23:04:45.085Z,19.72
2022-07-26T23:07:15.371Z,19.62
2022-07-26T23:09:48.038Z,19.66
2022-07-26T23:12:18.189Z,19.59
2022-07-26T23:14:48.358Z,19.63
2022-07-26T23:17:21.378Z,19.59
2022-07-26T23:19:51.576Z,19.60
2022-07-26T23:22:21.861Z,19.58
2022-07-26T23:24:52.109Z,19.61
2022-07-26T23:27:22.449Z,19.49
2022-07-26T23:29:52.735Z,19.42
2022-07-26T23:32:25.537Z,19.53
2022-07-26T23:34:55.652Z,19.46
2022-07-26T23:37:26.099Z,19.35
2022-07-26T23:39:56.312Z,19.27
2022-07-26T23:42:26.488Z,19.34
2022-07-26T23:44:56.834Z,19.24
2022-07-26T23:47:29.926Z,19.29
2022-07-26T23:50:00.181Z,19.37
2022-07-26T23:52:30.380Z,19.36
2022-07-26T23:55:00.504Z,19.32
2022-07-26T23:57:30.688Z,19.37
